sensor_id;sensor_type;location;lat;lon;timestamp;pressure;altitude;pressure_sealevel;temperature;humidity
23677;BME280;31493;49.058;12.190;2024-03-07T00:01:40;96511.13;;;1.93;100.00
23677;BME280;31493;49.058;12.190;2024-03-07T00:04:07;96518.84;;;1.92;100.00
23677;BME280;31493;49.058;12.190;2024-03-07T00:06:34;96518.28;;;1.82;100.00
23677;BME280;31493;49.058;12.190;2024-03-07T00:09:01;96511.94;;;1.95;100.00
23677;BME280;31493;49.058;12.190;2024-03-07T00:11:30;96517.22;;;1.89;100.00
23677;BME280;31493;49.058;12.190;2024-03-07T00:13:57;96509.75;;;1.82;100.00
23677;BME280;31493;49.058;12.190;2024-03-07T00:16:24;96525.16;;;1.80;100.00
23677;BME280;31493;49.058;12.190;2024-03-07T00:18:51;96521.91;;;1.75;100.00
23677;BME280;31493;49.058;12.190;2024-03-07T00:21:18;96517.25;;;1.60;100.00
23677;BME280;31493;49.058;12.190;2024-03-07T00:23:45;96512.19;;;1.58;100.00
23677;BME280;31493;49.058;12.190;2024-03-07T00:26:13;96518.88;;;1.62;100.00
23677;BME280;31493;49.058;12.190;2024-03-07T00:28:41;96517.66;;;1.46;100.00
23677;BME280;31493;49.058;12.190;2024-03-07T00:31:08;96522.63;;;1.51;100.00
23677;BME280;31493;49.058;12.190;2024-03-07T00:33:35;96508.06;;;1.54;100.00
23677;BME280;31493;49.058;12.190;2024-03-07T00:36:03;96509.13;;;1.47;100.00
23677;BME280;31493;49.058;12.190;2024-03-07T00:38:31;96502.41;;;1.43;100.00
23677;BME280;31493;49.058;12.190;2024-03-07T00:40:58;96502.22;;;1.49;100.00
23677;BME280;31493;49.058;12.190;2024-03-07T00:43:25;96511.09;;;1.37;100.00
23677;BME280;31493;49.058;12.190;2024-03-07T00:45:54;96510.19;;;1.40;100.00
23677;BME280;31493;49.058;12.190;2024-03-07T00:48:21;96506.81;;;1.38;100.00
23677;BME280;31493;49.058;12.190;2024-03-07T00:50:50;96500.78;;;1.40;100.00
23677;BME280;31493;49.058;12.190;2024-03-07T00:53:17;96504.59;;;1.26;100.00
23677;BME280;31493;49.058;12.190;2024-03-07T00:55:44;96496.91;;;1.27;100.00
23677;BME280;31493;49.058;12.190;2024-03-07T00:58:11;96500.19;;;1.31;100.00
23677;BME280;31493;49.058;12.190;2024-03-07T01:00:38;96494.91;;;1.37;100.00
23677;BME280;31493;49.058;12.190;2024-03-07T01:03:10;96498.03;;;1.17;100.00
23677;BME280;31493;49.058;12.190;2024-03-07T01:05:39;96507.47;;;1.15;100.00
23677;BME280;31493;49.058;12.190;2024-03-07T01:08:06;96493.88;;;1.13;100.00
23677;BME280;31493;49.058;12.190;2024-03-07T01:10:34;96496.88;;;0.98;100.00
23677;BME280;31493;49.058;12.190;2024-03-07T01:13:01;96498.72;;;0.93;100.00
23677;BME280;31493;49.058;12.190;2024-03-07T01:15:31;96506.13;;;1.02;100.00
23677;BME280;31493;49.058;12.190;2024-03-07T01:17:59;96499.56;;;0.93;100.00
23677;BME280;31493;49.058;12.190;2024-03-07T01:20:27;96502.88;;;0.97;100.00
23677;BME280;31493;49.058;12.190;2024-03-07T01:22:54;96501.94;;;0.99;100.00
23677;BME280;31493;49.058;12.190;2024-03-07T01:25:22;96499.78;;;0.84;100.00
23677;BME280;31493;49.058;12.190;2024-03-07T01:27:49;96509.41;;;0.74;100.00
23677;BME280;31493;49.058;12.190;2024-03-07T01:30:17;96500.19;;;0.69;100.00
23677;BME280;31493;49.058;12.190;2024-03-07T01:32:44;96497.50;;;0.75;100.00
23677;BME280;31493;49.058;12.190;2024-03-07T01:35:11;96493.53;;;0.63;100.00
23677;BME280;31493;49.058;12.190;2024-03-07T01:37:40;96494.25;;;0.68;100.00
23677;BME280;31493;49.058;12.190;2024-03-07T01:40:08;96488.53;;;0.58;100.00
23677;BME280;31493;49.058;12.190;2024-03-07T01:42:35;96494.38;;;0.64;100.00
23677;BME280;31493;49.058;12.190;2024-03-07T01:45:03;96485.97;;;0.60;100.00
23677;BME280;31493;49.058;12.190;2024-03-07T01:47:30;96483.28;;;0.65;100.00
23677;BME280;31493;49.058;12.190;2024-03-07T01:49:57;96480.94;;;0.57;100.00
23677;BME280;31493;49.058;12.190;2024-03-07T01:52:25;96496.41;;;0.51;100.00
23677;BME280;31493;49.058;12.190;2024-03-07T01:54:54;96480.31;;;0.47;100.00
23677;BME280;31493;49.058;12.190;2024-03-07T01:57:21;96479.16;;;0.59;100.00
23677;BME280;31493;49.058;12.190;2024-03-07T01:59:48;96490.53;;;0.47;100.00
23677;BME280;31493;49.058;12.190;2024-03-07T02:02:16;96483.13;;;0.38;100.00
23677;BME280;31493;49.058;12.190;2024-03-07T02:04:43;96473.84;;;0.36;100.00
23677;BME280;31493;49.058;12.190;2024-03-07T02:07:10;96476.47;;;0.32;100.00
23677;BME280;31493;49.058;12.190;2024-03-07T02:09:38;96473.38;;;0.20;100.00
23677;BME280;31493;49.058;12.190;2024-03-07T02:12:07;96462.28;;;0.21;100.00
23677;BME280;31493;49.058;12.190;2024-03-07T02:14:34;96458.91;;;0.20;100.00
23677;BME280;31493;49.058;12.190;2024-03-07T02:17:01;96460.72;;;0.17;100.00
23677;BME280;31493;49.058;12.190;2024-03-07T02:19:30;96452.28;;;0.13;100.00
23677;BME280;31493;49.058;12.190;2024-03-07T02:21:59;96464.84;;;0.21;100.00
23677;BME280;31493;49.058;12.190;2024-03-07T02:24:26;96453.75;;;0.22;100.00
23677;BME280;31493;49.058;12.190;2024-03-07T02:26:53;96459.78;;;0.19;100.00
23677;BME280;31493;49.058;12.190;2024-03-07T02:29:20;96455.63;;;0.17;100.00
23677;BME280;31493;49.058;12.190;2024-03-07T02:31:47;96442.25;;;0.07;100.00
23677;BME280;31493;49.058;12.190;2024-03-07T02:34:14;96448.28;;;0.04;100.00
23677;BME280;31493;49.058;12.190;2024-03-07T02:36:42;96452.59;;;0.01;100.00
23677;BME280;31493;49.058;12.190;2024-03-07T02:39:10;96444.84;;;0.05;100.00
23677;BME280;31493;49.058;12.190;2024-03-07T02:41:37;96443.41;;;-0.06;100.00
23677;BME280;31493;49.058;12.190;2024-03-07T02:44:05;96447.63;;;-0.05;100.00
23677;BME280;31493;49.058;12.190;2024-03-07T02:46:32;96448.44;;;-0.03;100.00
23677;BME280;31493;49.058;12.190;2024-03-07T02:48:59;96449.50;;;-0.12;100.00
23677;BME280;31493;49.058;12.190;2024-03-07T02:51:26;96455.38;;;-0.10;100.00
23677;BME280;31493;49.058;12.190;2024-03-07T02:53:53;96451.09;;;-0.08;100.00
23677;BME280;31493;49.058;12.190;2024-03-07T02:56:21;96455.38;;;-0.10;100.00
23677;BME280;31493;49.058;12.190;2024-03-07T02:58:48;96449.41;;;-0.09;100.00
23677;BME280;31493;49.058;12.190;2024-03-07T03:01:15;96454.50;;;-0.07;100.00
23677;BME280;31493;49.058;12.190;2024-03-07T03:03:42;96446.16;;;-0.15;100.00
23677;BME280;31493;49.058;12.190;2024-03-07T03:06:10;96452.16;;;-0.16;100.00
23677;BME280;31493;49.058;12.190;2024-03-07T03:08:37;96452.00;;;-0.10;100.00
23677;BME280;31493;49.058;12.190;2024-03-07T03:11:04;96446.94;;;-0.12;100.00
23677;BME280;31493;49.058;12.190;2024-03-07T03:13:34;96451.94;;;-0.07;100.00
23677;BME280;31493;49.058;12.190;2024-03-07T03:16:03;96446.94;;;-0.12;100.00
23677;BME280;31493;49.058;12.190;2024-03-07T03:18:32;96451.34;;;-0.18;100.00
23677;BME280;31493;49.058;12.190;2024-03-07T03:20:59;96450.53;;;-0.19;100.00
23677;BME280;31493;49.058;12.190;2024-03-07T03:23:27;96441.00;;;-0.12;100.00
23677;BME280;31493;49.058;12.190;2024-03-07T03:25:55;96456.38;;;-0.15;100.00
23677;BME280;31493;49.058;12.190;2024-03-07T03:28:22;96456.47;;;-0.18;100.00
23677;BME280;31493;49.058;12.190;2024-03-07T03:30:51;96445.72;;;-0.33;100.00
23677;BME280;31493;49.058;12.190;2024-03-07T03:33:18;96455.63;;;-0.19;100.00
23677;BME280;31493;49.058;12.190;2024-03-07T03:35:46;96445.19;;;-0.10;100.00
23677;BME280;31493;49.058;12.190;2024-03-07T03:38:13;96447.09;;;-0.18;100.00
23677;BME280;31493;49.058;12.190;2024-03-07T03:40:41;96451.53;;;-0.26;100.00
23677;BME280;31493;49.058;12.190;2024-03-07T03:43:09;96458.19;;;-0.21;100.00
23677;BME280;31493;49.058;12.190;2024-03-07T03:45:36;96447.69;;;-0.08;100.00
23677;BME280;31493;49.058;12.190;2024-03-07T03:48:05;96457.94;;;-0.10;100.00
23677;BME280;31493;49.058;12.190;2024-03-07T03:50:32;96448.53;;;-0.06;100.00
23677;BME280;31493;49.058;12.190;2024-03-07T03:52:59;96458.97;;;-0.17;100.00
23677;BME280;31493;49.058;12.190;2024-03-07T03:55:27;96452.41;;;0.08;100.00
23677;BME280;31493;49.058;12.190;2024-03-07T03:57:54;96441.31;;;0.10;100.00
23677;BME280;31493;49.058;12.190;2024-03-07T04:00:21;96451.41;;;0.14;100.00
23677;BME280;31493;49.058;12.190;2024-03-07T04:02:48;96450.66;;;0.11;100.00
23677;BME280;31493;49.058;12.190;2024-03-07T04:05:18;96449.50;;;0.22;100.00
23677;BME280;31493;49.058;12.190;2024-03-07T04:07:45;96448.91;;;0.13;100.00
23677;BME280;31493;49.058;12.190;2024-03-07T04:10:15;96445.47;;;0.14;100.00
23677;BME280;31493;49.058;12.190;2024-03-07T04:12:42;96451.84;;;0.31;100.00
23677;BME280;31493;49.058;12.190;2024-03-07T04:15:11;96449.59;;;0.19;100.00
23677;BME280;31493;49.058;12.190;2024-03-07T04:17:39;96451.47;;;0.45;100.00
23677;BME280;31493;49.058;12.190;2024-03-07T04:20:07;96453.28;;;0.42;100.00
23677;BME280;31493;49.058;12.190;2024-03-07T04:22:37;96448.84;;;0.48;100.00
23677;BME280;31493;49.058;12.190;2024-03-07T04:25:06;96465.00;;;0.49;100.00
23677;BME280;31493;49.058;12.190;2024-03-07T04:27:33;96456.81;;;0.69;100.00
23677;BME280;31493;49.058;12.190;2024-03-07T04:30:03;96463.00;;;0.60;100.00
23677;BME280;31493;49.058;12.190;2024-03-07T04:32:30;96459.44;;;0.66;100.00
23677;BME280;31493;49.058;12.190;2024-03-07T04:34:57;96466.41;;;0.59;100.00
23677;BME280;31493;49.058;12.190;2024-03-07T04:37:24;96456.66;;;0.42;100.00
23677;BME280;31493;49.058;12.190;2024-03-07T04:39:54;96461.47;;;0.20;100.00
23677;BME280;31493;49.058;12.190;2024-03-07T04:42:21;96456.81;;;0.02;100.00
23677;BME280;31493;49.058;12.190;2024-03-07T04:44:48;96462.94;;;-0.05;100.00
23677;BME280;31493;49.058;12.190;2024-03-07T04:47:15;96451.41;;;-0.22;100.00
23677;BME280;31493;49.058;12.190;2024-03-07T04:49:42;96449.28;;;-0.38;100.00
23677;BME280;31493;49.058;12.190;2024-03-07T04:52:09;96448.41;;;-0.37;100.00
23677;BME280;31493;49.058;12.190;2024-03-07T04:54:36;96451.09;;;-0.43;100.00
23677;BME280;31493;49.058;12.190;2024-03-07T04:57:05;96445.63;;;-0.28;100.00
23677;BME280;31493;49.058;12.190;2024-03-07T04:59:32;96446.50;;;-0.29;100.00
23677;BME280;31493;49.058;12.190;2024-03-07T05:01:59;96452.66;;;-0.38;100.00
23677;BME280;31493;49.058;12.190;2024-03-07T05:04:26;96447.53;;;-0.36;100.00
23677;BME280;31493;49.058;12.190;2024-03-07T05:06:55;96440.06;;;-0.44;100.00
23677;BME280;31493;49.058;12.190;2024-03-07T05:09:23;96444.19;;;-0.40;100.00
23677;BME280;31493;49.058;12.190;2024-03-07T05:11:51;96447.88;;;-0.53;100.00
23677;BME280;31493;49.058;12.190;2024-03-07T05:14:20;96445.44;;;-0.56;100.00
23677;BME280;31493;49.058;12.190;2024-03-07T05:16:47;96454.59;;;-0.49;100.00
23677;BME280;31493;49.058;12.190;2024-03-07T05:19:31;96455.97;;;-0.34;100.00
23677;BME280;31493;49.058;12.190;2024-03-07T05:21:58;96456.78;;;-0.32;100.00
23677;BME280;31493;49.058;12.190;2024-03-07T05:24:25;96442.53;;;-0.41;100.00
23677;BME280;31493;49.058;12.190;2024-03-07T05:26:52;96449.69;;;-0.57;100.00
23677;BME280;31493;49.058;12.190;2024-03-07T05:29:21;96453.06;;;-0.56;100.00
23677;BME280;31493;49.058;12.190;2024-03-07T05:31:48;96458.88;;;-0.51;100.00
23677;BME280;31493;49.058;12.190;2024-03-07T05:34:15;96464.84;;;-0.52;100.00
23677;BME280;31493;49.058;12.190;2024-03-07T05:36:45;96458.00;;;-0.49;100.00
23677;BME280;31493;49.058;12.190;2024-03-07T05:39:13;96464.69;;;-0.44;100.00
23677;BME280;31493;49.058;12.190;2024-03-07T05:41:42;96468.69;;;-0.34;100.00
23677;BME280;31493;49.058;12.190;2024-03-07T05:44:11;96457.75;;;-0.39;100.00
23677;BME280;31493;49.058;12.190;2024-03-07T05:46:39;96462.59;;;-0.27;100.00
23677;BME280;31493;49.058;12.190;2024-03-07T05:49:12;96471.66;;;-0.15;100.00
23677;BME280;31493;49.058;12.190;2024-03-07T05:51:39;96476.03;;;-0.21;100.00
23677;BME280;31493;49.058;12.190;2024-03-07T05:54:07;96467.41;;;-0.15;100.00
23677;BME280;31493;49.058;12.190;2024-03-07T05:56:35;96460.53;;;-0.11;100.00
23677;BME280;31493;49.058;12.190;2024-03-07T05:59:02;96466.31;;;-0.05;100.00
23677;BME280;31493;49.058;12.190;2024-03-07T06:01:30;96465.47;;;-0.05;100.00
23677;BME280;31493;49.058;12.190;2024-03-07T06:04:02;96463.88;;;-0.09;100.00
23677;BME280;31493;49.058;12.190;2024-03-07T06:06:32;96470.69;;;-0.10;100.00
23677;BME280;31493;49.058;12.190;2024-03-07T06:09:01;96469.50;;;0.05;100.00
23677;BME280;31493;49.058;12.190;2024-03-07T06:11:33;96468.81;;;-0.02;100.00
23677;BME280;31493;49.058;12.190;2024-03-07T06:14:01;96468.72;;;0.01;100.00
23677;BME280;31493;49.058;12.190;2024-03-07T06:16:29;96470.19;;;0.12;100.00
23677;BME280;31493;49.058;12.190;2024-03-07T06:18:58;96474.16;;;0.23;100.00
23677;BME280;31493;49.058;12.190;2024-03-07T06:21:27;96472.75;;;0.10;100.00
23677;BME280;31493;49.058;12.190;2024-03-07T06:23:54;96463.97;;;0.22;100.00
23677;BME280;31493;49.058;12.190;2024-03-07T06:26:25;96476.66;;;0.25;100.00
23677;BME280;31493;49.058;12.190;2024-03-07T06:29:03;96474.00;;;0.29;100.00
23677;BME280;31493;49.058;12.190;2024-03-07T06:31:31;96464.94;;;0.50;100.00
23677;BME280;31493;49.058;12.190;2024-03-07T06:33:58;96475.41;;;0.40;100.00
23677;BME280;31493;49.058;12.190;2024-03-07T06:36:27;96475.41;;;0.40;100.00
23677;BME280;31493;49.058;12.190;2024-03-07T06:38:54;96474.44;;;0.45;100.00
23677;BME280;31493;49.058;12.190;2024-03-07T06:41:21;96478.06;;;0.37;100.00
23677;BME280;31493;49.058;12.190;2024-03-07T06:43:48;96480.38;;;0.46;100.00
23677;BME280;31493;49.058;12.190;2024-03-07T06:46:15;96475.78;;;0.58;100.00
23677;BME280;31493;49.058;12.190;2024-03-07T06:48:43;96482.84;;;0.49;100.00
23677;BME280;31493;49.058;12.190;2024-03-07T06:51:10;96483.75;;;0.46;100.00
23677;BME280;31493;49.058;12.190;2024-03-07T06:53:38;96469.84;;;0.58;100.00
23677;BME280;31493;49.058;12.190;2024-03-07T06:56:06;96483.75;;;0.46;100.00
23677;BME280;31493;49.058;12.190;2024-03-07T06:58:33;96485.84;;;0.65;100.00
23677;BME280;31493;49.058;12.190;2024-03-07T07:01:00;96482.88;;;0.80;100.00
23677;BME280;31493;49.058;12.190;2024-03-07T07:03:27;96482.88;;;0.80;100.00
23677;BME280;31493;49.058;12.190;2024-03-07T07:05:54;96484.78;;;0.72;100.00
23677;BME280;31493;49.058;12.190;2024-03-07T07:08:21;96481.69;;;0.93;100.00
23677;BME280;31493;49.058;12.190;2024-03-07T07:10:50;96486.44;;;1.05;100.00
23677;BME280;31493;49.058;12.190;2024-03-07T07:13:20;96491.06;;;0.93;100.00
23677;BME280;31493;49.058;12.190;2024-03-07T07:15:47;96492.56;;;1.00;100.00
23677;BME280;31493;49.058;12.190;2024-03-07T07:18:15;96485.69;;;1.02;100.00
23677;BME280;31493;49.058;12.190;2024-03-07T07:20:43;96489.28;;;0.95;100.00
23677;BME280;31493;49.058;12.190;2024-03-07T07:23:10;96491.72;;;0.99;100.00
23677;BME280;31493;49.058;12.190;2024-03-07T07:25:39;96487.78;;;1.19;100.00
23677;BME280;31493;49.058;12.190;2024-03-07T07:28:07;96488.00;;;1.11;100.00
23677;BME280;31493;49.058;12.190;2024-03-07T07:30:37;96482.44;;;1.26;100.00
23677;BME280;31493;49.058;12.190;2024-03-07T07:33:04;96485.47;;;1.40;100.00
23677;BME280;31493;49.058;12.190;2024-03-07T07:35:31;96484.94;;;1.29;100.00
23677;BME280;31493;49.058;12.190;2024-03-07T07:38:00;96483.09;;;1.33;100.00
23677;BME280;31493;49.058;12.190;2024-03-07T07:40:27;96479.72;;;1.32;100.00
23677;BME280;31493;49.058;12.190;2024-03-07T07:42:54;96480.13;;;1.48;100.00
23677;BME280;31493;49.058;12.190;2024-03-07T07:45:23;96487.84;;;1.47;100.00
23677;BME280;31493;49.058;12.190;2024-03-07T07:47:52;96479.03;;;1.55;100.00
23677;BME280;31493;49.058;12.190;2024-03-07T07:50:21;96489.31;;;1.82;100.00
23677;BME280;31493;49.058;12.190;2024-03-07T07:52:49;96478.03;;;1.89;100.00
23677;BME280;31493;49.058;12.190;2024-03-07T07:55:17;96478.75;;;1.92;100.00
23677;BME280;31493;49.058;12.190;2024-03-07T07:57:46;96478.53;;;1.72;100.00
23677;BME280;31493;49.058;12.190;2024-03-07T08:00:16;96483.16;;;2.15;100.00
23677;BME280;31493;49.058;12.190;2024-03-07T08:02:51;96478.22;;;1.83;100.00
23677;BME280;31493;49.058;12.190;2024-03-07T08:05:19;96486.59;;;2.14;100.00
23677;BME280;31493;49.058;12.190;2024-03-07T08:07:49;96485.84;;;1.84;100.00
23677;BME280;31493;49.058;12.190;2024-03-07T08:10:17;96472.59;;;1.72;100.00
23677;BME280;31493;49.058;12.190;2024-03-07T08:12:44;96468.13;;;1.78;100.00
23677;BME280;31493;49.058;12.190;2024-03-07T08:15:12;96467.94;;;1.84;100.00
23677;BME280;31493;49.058;12.190;2024-03-07T08:17:41;96478.50;;;2.02;100.00
23677;BME280;31493;49.058;12.190;2024-03-07T08:20:13;96484.38;;;2.04;100.00
23677;BME280;31493;49.058;12.190;2024-03-07T08:22:41;96483.34;;;2.09;100.00
23677;BME280;31493;49.058;12.190;2024-03-07T08:25:09;96478.19;;;2.11;100.00
23677;BME280;31493;49.058;12.190;2024-03-07T08:27:37;96475.09;;;2.28;100.00
23677;BME280;31493;49.058;12.190;2024-03-07T08:30:05;96481.56;;;2.11;100.00
23677;BME280;31493;49.058;12.190;2024-03-07T08:32:33;96483.59;;;2.28;100.00
23677;BME280;31493;49.058;12.190;2024-03-07T08:35:04;96475.09;;;2.28;100.00
23677;BME280;31493;49.058;12.190;2024-03-07T08:37:35;96477.69;;;2.26;100.00
23677;BME280;31493;49.058;12.190;2024-03-07T08:40:03;96481.28;;;2.20;100.00
23677;BME280;31493;49.058;12.190;2024-03-07T08:42:33;96476.59;;;2.33;100.00
23677;BME280;31493;49.058;12.190;2024-03-07T08:45:00;96476.50;;;2.36;100.00
23677;BME280;31493;49.058;12.190;2024-03-07T08:47:30;96474.59;;;2.16;100.00
23677;BME280;31493;49.058;12.190;2024-03-07T08:49:58;96475.53;;;2.14;100.00
23677;BME280;31493;49.058;12.190;2024-03-07T08:52:25;96472.16;;;2.13;100.00
23677;BME280;31493;49.058;12.190;2024-03-07T08:54:54;96487.75;;;2.32;100.00
23677;BME280;31493;49.058;12.190;2024-03-07T08:57:21;96481.63;;;2.36;100.00
23677;BME280;31493;49.058;12.190;2024-03-07T08:59:48;96471.56;;;2.30;100.00
23677;BME280;31493;49.058;12.190;2024-03-07T09:02:15;96477.09;;;2.44;100.00
23677;BME280;31493;49.058;12.190;2024-03-07T09:04:42;96483.47;;;2.33;100.00
23677;BME280;31493;49.058;12.190;2024-03-07T09:07:09;96485.19;;;2.32;100.00
23677;BME280;31493;49.058;12.190;2024-03-07T09:09:36;96480.91;;;2.31;100.00
23677;BME280;31493;49.058;12.190;2024-03-07T09:12:05;96475.53;;;2.40;100.00
23677;BME280;31493;49.058;12.190;2024-03-07T09:14:32;96484.50;;;2.27;100.00
23677;BME280;31493;49.058;12.190;2024-03-07T09:17:01;96480.16;;;2.29;100.00
23677;BME280;31493;49.058;12.190;2024-03-07T09:19:30;96481.72;;;2.33;100.00
23677;BME280;31493;49.058;12.190;2024-03-07T09:21:57;96482.97;;;2.21;100.00
23677;BME280;31493;49.058;12.190;2024-03-07T09:24:25;96477.91;;;2.20;100.00
23677;BME280;31493;49.058;12.190;2024-03-07T09:26:54;96481.84;;;2.55;100.00
23677;BME280;31493;49.058;12.190;2024-03-07T09:29:23;96483.59;;;2.28;100.00
23677;BME280;31493;49.058;12.190;2024-03-07T09:31:50;96480.72;;;2.37;100.00
23677;BME280;31493;49.058;12.190;2024-03-07T09:34:19;96466.66;;;2.24;100.00
23677;BME280;31493;49.058;12.190;2024-03-07T09:36:47;96476.19;;;2.20;100.00
23677;BME280;31493;49.058;12.190;2024-03-07T09:39:15;96472.41;;;2.57;100.00
23677;BME280;31493;49.058;12.190;2024-03-07T09:41:42;96467.16;;;2.60;100.00
23677;BME280;31493;49.058;12.190;2024-03-07T09:44:10;96464.97;;;2.49;100.00
23677;BME280;31493;49.058;12.190;2024-03-07T09:46:40;96467.31;;;2.56;100.00
23677;BME280;31493;49.058;12.190;2024-03-07T09:49:10;96462.50;;;2.71;100.00
23677;BME280;31493;49.058;12.190;2024-03-07T09:51:37;96464.16;;;2.97;100.00
23677;BME280;31493;49.058;12.190;2024-03-07T09:54:04;96474.34;;;2.99;100.00
23677;BME280;31493;49.058;12.190;2024-03-07T09:56:31;96465.00;;;2.98;100.00
23677;BME280;31493;49.058;12.190;2024-03-07T09:59:03;96457.00;;;3.07;100.00
23677;BME280;31493;49.058;12.190;2024-03-07T10:01:33;96464.09;;;2.99;100.00
23677;BME280;31493;49.058;12.190;2024-03-07T10:04:05;96461.84;;;3.15;100.00
23677;BME280;31493;49.058;12.190;2024-03-07T10:06:37;96455.28;;;3.53;100.00
23677;BME280;31493;49.058;12.190;2024-03-07T10:09:05;96462.81;;;3.34;100.00
23677;BME280;31493;49.058;12.190;2024-03-07T10:11:33;96459.09;;;3.43;100.00
23677;BME280;31493;49.058;12.190;2024-03-07T10:14:00;96459.09;;;3.43;100.00
23677;BME280;31493;49.058;12.190;2024-03-07T10:16:29;96452.34;;;3.40;100.00
23677;BME280;31493;49.058;12.190;2024-03-07T10:18:55;96460.69;;;3.45;100.00
23677;BME280;31493;49.058;12.190;2024-03-07T10:21:24;96447.59;;;3.75;100.00
23677;BME280;31493;49.058;12.190;2024-03-07T10:24:04;96444.97;;;3.98;100.00
23677;BME280;31493;49.058;12.190;2024-03-07T10:26:33;96452.06;;;3.70;100.00
23677;BME280;31493;49.058;12.190;2024-03-07T10:29:01;96442.34;;;3.78;100.00
23677;BME280;31493;49.058;12.190;2024-03-07T10:31:28;96440.56;;;3.80;100.00
23677;BME280;31493;49.058;12.190;2024-03-07T10:33:59;96449.47;;;4.35;100.00
23677;BME280;31493;49.058;12.190;2024-03-07T10:36:28;96455.16;;;4.22;100.00
23677;BME280;31493;49.058;12.190;2024-03-07T10:38:57;96446.22;;;3.88;100.00
23677;BME280;31493;49.058;12.190;2024-03-07T10:41:44;96441.38;;;4.45;100.00
23677;BME280;31493;49.058;12.190;2024-03-07T10:44:18;96437.94;;;4.03;100.00
23677;BME280;31493;49.058;12.190;2024-03-07T10:46:51;96440.13;;;4.33;100.00
23677;BME280;31493;49.058;12.190;2024-03-07T10:49:20;96442.91;;;4.28;100.00
23677;BME280;31493;49.058;12.190;2024-03-07T10:51:59;96425.69;;;4.91;100.00
23677;BME280;31493;49.058;12.190;2024-03-07T10:54:34;96426.75;;;4.86;100.00
23677;BME280;31493;49.058;12.190;2024-03-07T10:57:15;96431.03;;;4.66;100.00
23677;BME280;31493;49.058;12.190;2024-03-07T10:59:50;96420.94;;;5.40;100.00
23677;BME280;31493;49.058;12.190;2024-03-07T11:02:43;96425.91;;;5.06;100.00
23677;BME280;31493;49.058;12.190;2024-03-07T11:05:13;96420.41;;;4.95;100.00
23677;BME280;31493;49.058;12.190;2024-03-07T11:07:42;96436.75;;;5.12;100.00
23677;BME280;31493;49.058;12.190;2024-03-07T11:10:10;96434.09;;;4.95;100.00
23677;BME280;31493;49.058;12.190;2024-03-07T11:12:38;96431.34;;;4.79;100.00
23677;BME280;31493;49.058;12.190;2024-03-07T11:15:08;96421.41;;;4.72;100.00
23677;BME280;31493;49.058;12.190;2024-03-07T11:17:42;96422.03;;;4.97;100.00
23677;BME280;31493;49.058;12.190;2024-03-07T11:20:19;96414.38;;;4.75;100.00
23677;BME280;31493;49.058;12.190;2024-03-07T11:22:47;96412.84;;;4.51;100.00
23677;BME280;31493;49.058;12.190;2024-03-07T11:25:17;96402.84;;;4.45;100.00
23677;BME280;31493;49.058;12.190;2024-03-07T11:27:51;96410.69;;;5.01;100.00
23677;BME280;31493;49.058;12.190;2024-03-07T11:30:19;96420.13;;;4.61;100.00
23677;BME280;31493;49.058;12.190;2024-03-07T11:32:49;96414.97;;;5.02;100.00
23677;BME280;31493;49.058;12.190;2024-03-07T11:35:19;96416.16;;;5.14;100.00
23677;BME280;31493;49.058;12.190;2024-03-07T11:37:56;96399.22;;;4.89;100.00
23677;BME280;31493;49.058;12.190;2024-03-07T11:40:44;96404.22;;;4.53;100.00
23677;BME280;31493;49.058;12.190;2024-03-07T11:43:14;96410.03;;;4.57;100.00
23677;BME280;31493;49.058;12.190;2024-03-07T11:45:41;96400.34;;;4.43;100.00
23677;BME280;31493;49.058;12.190;2024-03-07T11:48:12;96396.56;;;4.31;100.00
23677;BME280;31493;49.058;12.190;2024-03-07T11:50:41;96402.66;;;4.49;100.00
23677;BME280;31493;49.058;12.190;2024-03-07T11:53:09;96397.31;;;4.74;100.00
23677;BME280;31493;49.058;12.190;2024-03-07T11:55:37;96384.88;;;5.23;100.00
23677;BME280;31493;49.058;12.190;2024-03-07T11:58:14;96386.06;;;4.97;100.00
23677;BME280;31493;49.058;12.190;2024-03-07T12:00:43;96390.88;;;4.84;100.00
23677;BME280;31493;49.058;12.190;2024-03-07T12:03:13;96385.50;;;4.89;100.00
23677;BME280;31493;49.058;12.190;2024-03-07T12:05:43;96383.00;;;5.08;100.00
23677;BME280;31493;49.058;12.190;2024-03-07T12:08:10;96380.91;;;4.77;100.00
23677;BME280;31493;49.058;12.190;2024-03-07T12:10:37;96387.28;;;4.68;100.00
23677;BME280;31493;49.058;12.190;2024-03-07T12:13:06;96387.19;;;4.71;100.00
23677;BME280;31493;49.058;12.190;2024-03-07T12:15:35;96369.13;;;4.73;100.00
23677;BME280;31493;49.058;12.190;2024-03-07T12:18:04;96373.16;;;4.78;100.00
23677;BME280;31493;49.058;12.190;2024-03-07T12:20:36;96375.28;;;4.69;100.00
23677;BME280;31493;49.058;12.190;2024-03-07T12:23:04;96365.03;;;4.48;100.00
23677;BME280;31493;49.058;12.190;2024-03-07T12:25:34;96379.75;;;4.45;100.00
23677;BME280;31493;49.058;12.190;2024-03-07T12:28:03;96365.19;;;4.84;100.00
23677;BME280;31493;49.058;12.190;2024-03-07T12:30:34;96367.16;;;4.98;100.00
23677;BME280;31493;49.058;12.190;2024-03-07T12:33:02;96363.84;;;4.96;100.00
23677;BME280;31493;49.058;12.190;2024-03-07T12:35:33;96359.59;;;5.14;100.00
23677;BME280;31493;49.058;12.190;2024-03-07T12:38:02;96356.88;;;4.98;99.81
23677;BME280;31493;49.058;12.190;2024-03-07T12:40:30;96358.31;;;4.85;100.00
23677;BME280;31493;49.058;12.190;2024-03-07T12:42:59;96355.41;;;5.30;100.00
23677;BME280;31493;49.058;12.190;2024-03-07T12:45:28;96357.59;;;5.38;97.65
23677;BME280;31493;49.058;12.190;2024-03-07T12:47:59;96357.94;;;5.49;100.00
23677;BME280;31493;49.058;12.190;2024-03-07T12:50:30;96350.72;;;5.02;99.19
23677;BME280;31493;49.058;12.190;2024-03-07T12:53:04;96346.13;;;5.09;100.00
23677;BME280;31493;49.058;12.190;2024-03-07T12:55:31;96349.88;;;5.21;98.86